createdAt,value
2018-06-18T00:00:37.021Z,83.30
2018-06-18T00:01:36.933Z,83.49
2018-06-18T00:02:36.967Z,83.54
2018-06-18T00:03:36.960Z,83.49
2018-06-18T00:04:36.975Z,83.78
2018-06-18T00:05:37.033Z,83.57
2018-06-18T00:06:37.034Z,82.93
2018-06-18T00:07:36.969Z,82.82
2018-06-18T00:08:36.966Z,82.98
2018-06-18T00:09:37.035Z,83.09
2018-06-18T00:10:36.973Z,82.96
2018-06-18T00:11:37.037Z,82.80
2018-06-18T00:12:37.015Z,82.61
2018-06-18T00:13:37.005Z,82.43
2018-06-18T00:14:37.063Z,82.51
2018-06-18T00:15:36.960Z,82.27
2018-06-18T00:16:36.947Z,82.06
2018-06-18T00:17:37.013Z,82.35
2018-06-18T00:18:37.055Z,83.09
2018-06-18T00:19:37.020Z,83.51
2018-06-18T00:20:36.939Z,83.91
2018-06-18T00:21:37.044Z,83.78
2018-06-18T00:22:37.003Z,83.49
2018-06-18T00:23:37.049Z,83.59
2018-06-18T00:24:36.981Z,83.73
2018-06-18T00:25:37.046Z,83.99
2018-06-18T00:26:37.045Z,84.17
2018-06-18T00:27:37.080Z,83.97
2018-06-18T00:28:37.014Z,83.67
2018-06-18T00:29:36.984Z,83.54
2018-06-18T00:30:37.013Z,83.38
2018-06-18T00:31:37.034Z,83.30
2018-06-18T00:32:37.071Z,83.22
2018-06-18T00:33:37.083Z,83.38
2018-06-18T00:34:37.081Z,83.36
2018-06-18T00:35:37.030Z,83.40
2018-06-18T00:36:37.090Z,83.49
2018-06-18T00:37:36.950Z,83.49
2018-06-18T00:38:37.089Z,83.51
2018-06-18T00:39:37.131Z,84.05
2018-06-18T00:40:37.089Z,84.28
2018-06-18T00:41:37.088Z,84.87
2018-06-18T00:42:37.014Z,85.08
2018-06-18T00:43:37.098Z,85.24
2018-06-18T00:44:37.014Z,85.40
2018-06-18T00:45:37.034Z,85.58
2018-06-18T00:46:37.000Z,85.64
2018-06-18T00:47:37.091Z,85.61
2018-06-18T00:48:37.037Z,85.64
2018-06-18T00:49:37.088Z,85.58
2018-06-18T00:50:37.085Z,85.93
2018-06-18T00:51:36.983Z,85.80
2018-06-18T00:52:36.966Z,85.56
2018-06-18T00:53:37.023Z,85.83
2018-06-18T00:54:37.065Z,85.75
2018-06-18T00:55:37.100Z,85.66
2018-06-18T00:56:36.992Z,85.61
2018-06-18T00:57:36.990Z,85.35
2018-06-18T00:58:37.100Z,85.48
2018-06-18T00:59:37.045Z,85.66
2018-06-18T01:00:37.103Z,85.56
2018-06-18T01:01:37.035Z,85.40
2018-06-18T01:02:37.131Z,85.61
2018-06-18T01:03:36.968Z,85.58
2018-06-18T01:04:37.072Z,85.35
2018-06-18T01:05:37.013Z,85.16
2018-06-18T01:06:37.106Z,85.08
2018-06-18T01:07:37.073Z,85.11
2018-06-18T01:08:36.974Z,85.19
2018-06-18T01:09:37.108Z,85.24
2018-06-18T01:10:37.076Z,85.40
2018-06-18T01:11:37.055Z,85.61
2018-06-18T01:12:36.994Z,85.66
2018-06-18T01:13:37.069Z,85.75
2018-06-18T01:14:37.068Z,85.83
2018-06-18T01:15:37.070Z,85.96
2018-06-18T01:16:37.037Z,86.15
2018-06-18T01:17:37.067Z,86.20
2018-06-18T01:18:36.958Z,86.30
2018-06-18T01:19:36.987Z,86.38
2018-06-18T01:20:36.989Z,86.38
2018-06-18T01:21:37.084Z,86.44
2018-06-18T01:22:37.006Z,86.63
2018-06-18T01:23:37.063Z,86.65
2018-06-18T01:24:37.061Z,86.63
2018-06-18T01:25:36.989Z,86.54
2018-06-18T01:26:37.084Z,86.65
2018-06-18T01:27:37.036Z,86.94
2018-06-18T01:28:37.010Z,87.13
2018-06-18T01:29:37.107Z,87.16
2018-06-18T01:30:37.148Z,87.21
2018-06-18T01:31:37.006Z,87.18
2018-06-18T01:32:37.061Z,86.87
2018-06-18T01:33:37.096Z,86.57
2018-06-18T01:34:37.097Z,86.46
2018-06-18T01:35:37.093Z,86.41
2018-06-18T01:36:37.028Z,86.46
2018-06-18T01:37:37.027Z,86.49
2018-06-18T01:38:37.031Z,86.25
2018-06-18T01:39:37.028Z,86.07
2018-06-18T01:40:37.028Z,86.01
2018-06-18T01:41:37.101Z,85.88
2018-06-18T01:42:37.034Z,85.88
2018-06-18T01:43:37.101Z,85.85
2018-06-18T01:44:37.118Z,85.66
2018-06-18T01:45:37.038Z,85.35
2018-06-18T01:46:37.042Z,85.19
2018-06-18T01:47:37.036Z,85.21
2018-06-18T01:48:37.110Z,85.72
2018-06-18T01:49:37.104Z,85.61
2018-06-18T01:50:37.103Z,85.61
2018-06-18T01:51:37.041Z,85.50
2018-06-18T01:52:37.043Z,85.75
2018-06-18T01:53:37.077Z,85.93
2018-06-18T01:54:37.077Z,86.28
2018-06-18T01:55:37.131Z,86.25
2018-06-18T01:56:37.183Z,86.22
2018-06-18T01:57:37.104Z,86.25
2018-06-18T01:58:37.110Z,86.38
2018-06-18T01:59:37.112Z,86.33
2018-06-18T02:00:37.113Z,86.71
2018-06-18T02:01:37.142Z,86.76
2018-06-18T02:02:37.077Z,86.57
2018-06-18T02:03:37.030Z,86.25
2018-06-18T02:04:37.139Z,86.01
2018-06-18T02:05:37.085Z,85.83
2018-06-18T02:06:37.114Z,85.72
2018-06-18T02:07:37.118Z,85.77
2018-06-18T02:08:37.078Z,85.50
2018-06-18T02:09:37.020Z,85.30
2018-06-18T02:10:37.077Z,85.32
2018-06-18T02:11:37.090Z,85.32
2018-06-18T02:12:37.054Z,85.53
2018-06-18T02:13:37.041Z,85.53
2018-06-18T02:14:37.073Z,85.58
2018-06-18T02:15:37.118Z,85.56
2018-06-18T02:16:37.082Z,85.56
2018-06-18T02:17:37.040Z,85.56
2018-06-18T02:18:37.063Z,85.61
2018-06-18T02:19:37.119Z,85.72
2018-06-18T02:20:37.039Z,85.66
2018-06-18T02:21:37.113Z,85.61
2018-06-18T02:22:37.118Z,85.69
2018-06-18T02:23:37.084Z,85.61
2018-06-18T02:24:37.088Z,85.93
2018-06-18T02:25:37.166Z,85.99
2018-06-18T02:26:37.153Z,85.99
2018-06-18T02:27:37.050Z,86.09
2018-06-18T02:28:37.029Z,86.20
2018-06-18T02:29:37.170Z,86.36
2018-06-18T02:30:37.155Z,86.38
2018-06-18T02:31:37.035Z,86.54
2018-06-18T02:32:37.129Z,86.60
2018-06-18T02:33:37.071Z,86.63
2018-06-18T02:34:37.177Z,86.68
2018-06-18T02:35:37.037Z,86.79
2018-06-18T02:36:37.161Z,86.89
2018-06-18T02:37:37.189Z,86.91
2018-06-18T02:38:37.198Z,86.91
2018-06-18T02:39:37.160Z,86.94
2018-06-18T02:40:37.157Z,87.08
2018-06-18T02:41:37.072Z,87.05
2018-06-18T02:42:37.167Z,87.02
2018-06-18T02:43:37.137Z,86.94
2018-06-18T02:44:37.070Z,86.87
2018-06-18T02:45:37.137Z,86.81
2018-06-18T02:46:37.177Z,86.89
2018-06-18T02:47:37.140Z,86.89
2018-06-18T02:48:37.099Z,86.89
2018-06-18T02:49:37.170Z,86.81
2018-06-18T02:50:37.078Z,86.89
2018-06-18T02:51:37.102Z,86.79
2018-06-18T02:52:37.139Z,86.73
2018-06-18T02:53:37.181Z,86.73
2018-06-18T02:54:37.148Z,86.63
2018-06-18T02:55:37.145Z,86.71
2018-06-18T02:56:37.185Z,86.73
2018-06-18T02:57:37.086Z,86.76
2018-06-18T02:58:41.614Z,86.65
2018-06-18T02:59:37.154Z,86.57
2018-06-18T03:00:37.082Z,86.52
2018-06-18T03:01:37.151Z,86.60
2018-06-18T03:02:37.156Z,86.68
2018-06-18T03:03:37.156Z,86.81
2018-06-18T03:04:37.088Z,86.79
2018-06-18T03:05:37.125Z,86.84
2018-06-18T03:06:37.093Z,86.73
2018-06-18T03:07:37.155Z,86.65
2018-06-18T03:08:37.193Z,86.54
2018-06-18T03:09:37.172Z,86.63
2018-06-18T03:10:37.158Z,86.65
2018-06-18T03:11:37.118Z,86.68
2018-06-18T03:12:37.092Z,86.65
2018-06-18T03:13:37.137Z,86.54
2018-06-18T03:14:37.049Z,86.57
2018-06-18T03:15:37.054Z,86.52
2018-06-18T03:16:37.141Z,86.63
2018-06-18T03:17:37.122Z,86.60
2018-06-18T03:18:37.140Z,86.60
2018-06-18T03:19:37.110Z,86.49
2018-06-18T03:20:37.140Z,86.38
2018-06-18T03:21:37.088Z,86.36
2018-06-18T03:22:37.027Z,86.30
2018-06-18T03:23:37.225Z,86.28
2018-06-18T03:24:37.067Z,86.25
2018-06-18T03:25:37.180Z,86.25
2018-06-18T03:26:37.192Z,86.25
2018-06-18T03:27:37.169Z,86.12
2018-06-18T03:28:37.166Z,86.07
2018-06-18T03:29:37.207Z,85.91
2018-06-18T03:30:37.210Z,85.88
2018-06-18T03:31:37.116Z,85.88
2018-06-18T03:32:37.168Z,85.88
2018-06-18T03:33:37.175Z,85.85
2018-06-18T03:34:37.176Z,85.83
2018-06-18T03:35:37.125Z,85.99
2018-06-18T03:36:37.174Z,86.17
2018-06-18T03:37:37.106Z,86.28
2018-06-18T03:38:37.177Z,86.44
2018-06-18T03:39:37.174Z,86.46
2018-06-18T03:40:37.175Z,86.52
2018-06-18T03:41:37.175Z,86.65
2018-06-18T03:42:37.108Z,86.63
2018-06-18T03:43:37.147Z,86.52
2018-06-18T03:44:37.098Z,86.63
2018-06-18T03:45:37.204Z,86.36
2018-06-18T03:46:37.150Z,86.30
2018-06-18T03:47:37.159Z,86.30
2018-06-18T03:48:37.157Z,86.41
2018-06-18T03:49:37.192Z,86.46
2018-06-18T03:50:37.205Z,86.44
2018-06-18T03:51:37.112Z,86.38
2018-06-18T03:52:37.157Z,86.38
2018-06-18T03:53:37.091Z,86.33
2018-06-18T03:54:37.216Z,86.30
2018-06-18T03:55:37.157Z,86.36
2018-06-18T03:56:37.184Z,86.28
2018-06-18T03:57:37.212Z,86.44
2018-06-18T03:58:37.146Z,86.36
2018-06-18T03:59:37.094Z,86.52
2018-06-18T04:00:37.091Z,86.49
2018-06-18T04:01:37.215Z,86.46
2018-06-18T04:02:37.206Z,86.46
2018-06-18T04:03:37.186Z,86.41
2018-06-18T04:04:37.185Z,86.54
2018-06-18T04:05:37.307Z,86.46
2018-06-18T04:06:37.193Z,86.36
2018-06-18T04:07:37.147Z,86.09
2018-06-18T04:08:37.187Z,86.07
2018-06-18T04:09:37.129Z,86.09
2018-06-18T04:10:37.191Z,85.93
2018-06-18T04:11:37.130Z,85.88
2018-06-18T04:12:37.193Z,85.69
2018-06-18T04:13:37.099Z,85.61
2018-06-18T04:14:37.105Z,85.48
2018-06-18T04:15:37.226Z,85.11
2018-06-18T04:16:37.101Z,84.97
2018-06-18T04:17:37.171Z,84.97
2018-06-18T04:18:37.176Z,85.11
2018-06-18T04:19:37.228Z,84.95
2018-06-18T04:20:37.198Z,84.92
2018-06-18T04:21:37.123Z,84.31
2018-06-18T04:22:37.222Z,84.17
2018-06-18T04:23:37.163Z,83.86
2018-06-18T04:24:37.166Z,83.73
2018-06-18T04:25:37.239Z,83.73
2018-06-18T04:26:37.163Z,83.25
2018-06-18T04:27:37.204Z,83.30
2018-06-18T04:28:37.126Z,83.44
2018-06-18T04:29:37.179Z,83.04
2018-06-18T04:30:37.182Z,82.88
2018-06-18T04:31:37.235Z,82.72
2018-06-18T04:32:37.127Z,82.35
2018-06-18T04:33:37.211Z,82.21
2018-06-18T04:34:37.164Z,82.43
2018-06-18T04:35:37.141Z,82.35
2018-06-18T04:36:37.141Z,82.32
2018-06-18T04:37:37.226Z,82.32
2018-06-18T04:38:37.208Z,82.27
2018-06-18T04:39:37.150Z,81.95
2018-06-18T04:40:37.211Z,81.68
2018-06-18T04:41:37.211Z,81.92
2018-06-18T04:42:37.151Z,81.90
2018-06-18T04:43:37.214Z,81.56
2018-06-18T04:44:37.189Z,81.74
2018-06-18T04:45:37.174Z,81.37
2018-06-18T04:46:37.243Z,81.08
2018-06-18T04:47:37.125Z,81.05
2018-06-18T04:48:37.217Z,80.79
2018-06-18T04:49:37.193Z,80.97
2018-06-18T04:50:37.119Z,81.16
2018-06-18T04:51:37.189Z,81.32
2018-06-18T04:52:37.163Z,81.21
2018-06-18T04:53:37.250Z,81.34
2018-06-18T04:54:37.178Z,81.32
2018-06-18T04:55:37.180Z,81.21
2018-06-18T04:56:37.249Z,80.65
2018-06-18T04:57:37.254Z,80.87
2018-06-18T04:58:37.188Z,81.21
2018-06-18T04:59:37.244Z,80.92
2018-06-18T05:00:37.239Z,80.87
2018-06-18T05:01:37.185Z,80.97
2018-06-18T05:02:37.202Z,80.49
2018-06-18T05:03:37.167Z,80.55
2018-06-18T05:04:37.227Z,80.52
2018-06-18T05:05:37.229Z,80.76
2018-06-18T05:06:37.227Z,81.05
2018-06-18T05:07:37.215Z,80.65
2018-06-18T05:08:37.234Z,80.79
2018-06-18T05:09:37.167Z,80.79
2018-06-18T05:10:37.234Z,80.71
2018-06-18T05:11:37.254Z,81.29
2018-06-18T05:12:37.237Z,81.45
2018-06-18T05:13:37.236Z,81.34
2018-06-18T05:14:37.243Z,80.55
2018-06-18T05:15:37.245Z,80.39
2018-06-18T05:16:37.171Z,80.41
2018-06-18T05:17:37.168Z,80.05
2018-06-18T05:18:37.173Z,79.75
2018-06-18T05:19:37.178Z,79.89
2018-06-18T05:20:37.308Z,79.81
2018-06-18T05:21:37.174Z,79.79
2018-06-18T05:22:37.179Z,78.97
2018-06-18T05:23:37.241Z,78.62
2018-06-18T05:24:37.175Z,77.89
2018-06-18T05:25:37.172Z,77.47
2018-06-18T05:26:37.245Z,77.54
2018-06-18T05:27:37.176Z,77.97
2018-06-18T05:28:37.246Z,78.62
2018-06-18T05:29:37.176Z,78.20
2018-06-18T05:30:37.178Z,77.97
2018-06-18T05:31:37.252Z,77.86
2018-06-18T05:32:37.266Z,77.07
2018-06-18T05:33:37.248Z,77.47
2018-06-18T05:34:37.150Z,76.20
2018-06-18T05:35:37.282Z,76.31
2018-06-18T05:36:37.287Z,76.52
2018-06-18T05:37:37.159Z,76.94
2018-06-18T05:38:37.282Z,77.81
2018-06-18T05:39:37.298Z,76.81
2018-06-18T05:40:37.343Z,76.86
2018-06-18T05:41:37.259Z,75.89
2018-06-18T05:42:37.228Z,76.10
2018-06-18T05:43:37.222Z,76.04
2018-06-18T05:44:37.208Z,75.26
2018-06-18T05:45:37.218Z,75.37
2018-06-18T05:46:37.174Z,75.60
2018-06-18T05:47:37.284Z,75.57
2018-06-18T05:48:37.241Z,74.76
2018-06-18T05:49:37.185Z,75.23
2018-06-18T05:50:37.319Z,74.81
2018-06-18T05:51:37.296Z,73.71
2018-06-18T05:52:37.297Z,73.87
2018-06-18T05:53:37.241Z,74.05
2018-06-18T05:54:37.287Z,74.36
2018-06-18T05:55:37.264Z,73.22
2018-06-18T05:56:37.242Z,72.07
2018-06-18T05:57:37.240Z,72.25
2018-06-18T05:58:37.306Z,72.09
2018-06-18T05:59:37.165Z,71.34
2018-06-18T06:00:37.293Z,71.26
2018-06-18T06:01:37.266Z,71.81
2018-06-18T06:02:37.238Z,70.95
2018-06-18T06:03:37.218Z,70.58
2018-06-18T06:04:37.157Z,71.60
2018-06-18T06:05:37.204Z,72.59
2018-06-18T06:06:37.192Z,70.84
2018-06-18T06:07:37.170Z,70.71
2018-06-18T06:08:37.267Z,70.76
2018-06-18T06:09:37.259Z,70.60
2018-06-18T06:10:37.273Z,71.60
2018-06-18T06:11:37.192Z,70.04
2018-06-18T06:12:37.162Z,69.57
2018-06-18T06:13:37.234Z,69.75
2018-06-18T06:14:37.278Z,68.50
2018-06-18T06:15:37.296Z,68.94
2018-06-18T06:16:37.210Z,69.26
2018-06-18T06:17:37.212Z,69.85
2018-06-18T06:18:37.211Z,69.23
2018-06-18T06:19:37.211Z,68.71
2018-06-18T06:20:37.214Z,68.43
2018-06-18T06:21:37.315Z,68.60
2018-06-18T06:22:37.211Z,69.62
2018-06-18T06:23:37.297Z,68.45
2018-06-18T06:24:37.282Z,68.94
2018-06-18T06:25:37.282Z,68.81
2018-06-18T06:26:37.177Z,68.97
2018-06-18T06:27:37.321Z,69.23
2018-06-18T06:28:37.308Z,69.77
2018-06-18T06:29:37.291Z,69.65
2018-06-18T06:30:37.193Z,69.54
2018-06-18T06:31:37.262Z,69.10
2018-06-18T06:32:37.248Z,69.30
2018-06-18T06:33:37.206Z,69.77
2018-06-18T06:34:37.245Z,69.23
2018-06-18T06:35:37.245Z,70.43
2018-06-18T06:36:37.251Z,70.11
2018-06-18T06:37:37.254Z,69.59
2018-06-18T06:38:37.245Z,70.32
2018-06-18T06:39:37.292Z,68.89
2018-06-18T06:40:37.294Z,68.60
2018-06-18T06:41:37.269Z,69.77
2018-06-18T06:42:37.257Z,68.81
2018-06-18T06:43:37.320Z,69.88
2018-06-18T06:44:37.296Z,70.06
2018-06-18T06:45:37.236Z,71.18
2018-06-18T06:46:37.295Z,70.48
2018-06-18T06:47:37.228Z,70.17
2018-06-18T06:48:37.229Z,70.74
2018-06-18T06:49:37.311Z,71.13
2018-06-18T06:50:37.234Z,72.64
2018-06-18T06:51:37.235Z,70.27
2018-06-18T06:52:37.232Z,70.17
2018-06-18T06:53:37.238Z,69.90
2018-06-18T06:54:37.322Z,69.85
2018-06-18T06:55:37.261Z,70.45
2018-06-18T06:56:37.272Z,70.35
2018-06-18T06:57:37.331Z,71.23
2018-06-18T06:58:37.283Z,70.43
2018-06-18T06:59:37.261Z,69.88
2018-06-18T07:00:37.275Z,69.36
2018-06-18T07:01:37.285Z,69.38
2018-06-18T07:02:37.381Z,69.05
2018-06-18T07:03:37.332Z,69.44
2018-06-18T07:04:37.267Z,69.30
2018-06-18T07:05:37.246Z,68.32
2018-06-18T07:06:37.325Z,67.33
2018-06-18T07:07:37.275Z,67.13
2018-06-18T07:08:37.275Z,67.49
2018-06-18T07:09:37.333Z,68.40
2018-06-18T07:10:37.281Z,69.02
2018-06-18T07:11:37.273Z,68.74
2018-06-18T07:12:37.220Z,68.89
2018-06-18T07:13:37.407Z,69.36
2018-06-18T07:14:37.341Z,68.27
2018-06-18T07:15:37.353Z,69.05
2018-06-18T07:16:37.285Z,69.28
2018-06-18T07:17:37.327Z,69.88
2018-06-18T07:18:37.244Z,70.68
2018-06-18T07:19:37.261Z,70.60
2018-06-18T07:20:37.315Z,69.65
2018-06-18T07:21:37.224Z,70.79
2018-06-18T07:22:37.307Z,69.54
2018-06-18T07:23:37.342Z,70.74
2018-06-18T07:24:37.358Z,70.43
2018-06-18T07:25:37.321Z,71.28
2018-06-18T07:26:37.257Z,70.56
2018-06-18T07:27:37.327Z,70.48
2018-06-18T07:28:37.259Z,70.21
2018-06-18T07:29:37.326Z,70.27
2018-06-18T07:30:37.424Z,71.47
2018-06-18T07:31:37.326Z,70.40
2018-06-18T07:32:37.262Z,71.03
2018-06-18T07:33:37.330Z,70.40
2018-06-18T07:34:37.283Z,70.53
2018-06-18T07:35:37.325Z,69.44
2018-06-18T07:36:37.309Z,68.89
2018-06-18T07:37:37.332Z,69.30
2018-06-18T07:38:37.432Z,68.99
2018-06-18T07:39:37.316Z,69.12
2018-06-18T07:40:37.233Z,68.58
2018-06-18T07:41:37.309Z,69.18
2018-06-18T07:42:37.311Z,68.14
2018-06-18T07:43:37.365Z,67.83
2018-06-18T07:44:37.200Z,67.41
2018-06-18T07:45:37.297Z,67.41
2018-06-18T07:46:37.256Z,66.77
2018-06-18T07:47:37.315Z,66.69
2018-06-18T07:48:37.215Z,66.66
2018-06-18T07:49:37.203Z,66.40
2018-06-18T07:50:37.297Z,66.69
2018-06-18T07:51:37.326Z,66.33
2018-06-18T07:52:37.298Z,66.40
2018-06-18T07:53:37.230Z,65.83
2018-06-18T07:54:37.340Z,65.91
2018-06-18T07:55:37.341Z,67.46
2018-06-18T07:56:37.274Z,67.13
2018-06-18T07:57:37.313Z,67.33
2018-06-18T07:58:37.277Z,67.54
2018-06-18T07:59:37.280Z,68.16
2018-06-18T08:00:37.343Z,67.31
2018-06-18T08:01:37.306Z,67.10
2018-06-18T08:02:37.347Z,66.66
2018-06-18T08:03:37.384Z,66.74
2018-06-18T08:04:37.377Z,66.92
2018-06-18T08:05:37.388Z,66.22
2018-06-18T08:07:37.344Z,66.50
2018-06-18T08:08:37.370Z,66.37
2018-06-18T08:09:37.351Z,66.37
2018-06-18T08:10:37.328Z,66.01
2018-06-18T08:11:37.329Z,66.66
2018-06-18T08:12:37.316Z,67.18
2018-06-18T08:13:37.391Z,66.87
2018-06-18T08:14:37.353Z,66.50
2018-06-18T08:15:37.291Z,67.10
2018-06-18T08:16:37.354Z,68.11
2018-06-18T08:17:37.315Z,66.74
2018-06-18T08:18:37.356Z,66.56
2018-06-18T08:19:37.358Z,65.96
2018-06-18T08:20:37.291Z,66.84
2018-06-18T08:21:37.317Z,66.89
2018-06-18T08:22:37.257Z,66.50
2018-06-18T08:23:37.337Z,67.28
2018-06-18T08:24:37.380Z,67.91
2018-06-18T08:25:37.328Z,67.91
2018-06-18T08:26:37.331Z,67.36
2018-06-18T08:27:37.393Z,67.64
2018-06-18T08:28:37.330Z,67.44
2018-06-18T08:29:37.365Z,68.37
2018-06-18T08:30:37.333Z,69.36
2018-06-18T08:31:37.267Z,68.27
2018-06-18T08:32:37.387Z,70.64
2018-06-18T08:33:37.276Z,69.23
2018-06-18T08:34:37.268Z,68.66
2018-06-18T08:35:37.325Z,67.41
2018-06-18T08:36:37.345Z,67.70
2018-06-18T08:37:37.398Z,68.24
2018-06-18T08:38:37.390Z,68.45
2018-06-18T08:39:37.404Z,69.20
2018-06-18T08:40:37.397Z,68.71
2018-06-18T08:41:37.373Z,68.63
2018-06-18T08:42:37.301Z,69.15
2018-06-18T08:43:37.346Z,66.95
2018-06-18T08:44:37.372Z,67.54
2018-06-18T08:45:37.275Z,67.41
2018-06-18T08:46:37.416Z,67.88
2018-06-18T08:47:37.408Z,68.04
2018-06-18T08:48:37.409Z,66.95
2018-06-18T08:49:37.401Z,66.56
2018-06-18T08:50:37.447Z,67.54
2018-06-18T08:51:37.356Z,67.62
2018-06-18T08:52:37.377Z,68.06
2018-06-18T08:53:37.417Z,67.39
2018-06-18T08:54:37.313Z,66.74
2018-06-18T08:55:37.315Z,67.31
2018-06-18T08:56:37.380Z,66.71
2018-06-18T08:57:37.317Z,67.10
2018-06-18T08:58:37.383Z,67.62
2018-06-18T08:59:37.315Z,67.70
2018-06-18T09:00:37.386Z,67.57
2018-06-18T09:01:37.317Z,67.67
2018-06-18T09:02:37.275Z,67.75
2018-06-18T09:03:37.387Z,68.16
2018-06-18T09:04:37.413Z,68.55
2018-06-18T09:05:37.331Z,68.27
2018-06-18T09:06:37.386Z,68.99
2018-06-18T09:07:37.372Z,67.77
2018-06-18T09:08:37.355Z,67.80
2018-06-18T09:09:37.424Z,68.40
2018-06-18T09:10:37.394Z,69.07
2018-06-18T09:11:37.314Z,69.12
2018-06-18T09:12:37.393Z,69.10
2018-06-18T09:13:37.429Z,68.63
2018-06-18T09:14:37.375Z,67.88
2018-06-18T09:15:37.397Z,70.04
2018-06-18T09:16:37.299Z,67.67
2018-06-18T09:17:37.411Z,67.20
2018-06-18T09:18:37.323Z,67.83
2018-06-18T09:19:37.355Z,68.55
2018-06-18T09:20:37.410Z,68.58
2018-06-18T09:21:37.321Z,67.33
2018-06-18T09:22:37.398Z,67.10
2018-06-18T09:23:37.429Z,67.44
2018-06-18T09:24:37.366Z,67.18
2018-06-18T09:25:37.327Z,67.75
2018-06-18T09:26:37.389Z,67.85
2018-06-18T09:27:37.266Z,66.64
2018-06-18T09:28:37.288Z,66.33
2018-06-18T09:29:37.329Z,65.78
2018-06-18T09:30:37.356Z,65.39
2018-06-18T09:31:37.391Z,64.88
2018-06-18T09:32:37.416Z,65.01
2018-06-18T09:33:37.314Z,65.16
2018-06-18T09:34:37.221Z,64.59
2018-06-18T09:35:37.401Z,64.44
2018-06-18T09:36:37.367Z,64.44
2018-06-18T09:37:37.418Z,63.72
2018-06-18T09:38:37.409Z,64.80
2018-06-18T09:39:37.416Z,63.66
2018-06-18T09:40:37.313Z,64.10
2018-06-18T09:41:37.332Z,64.29
2018-06-18T09:42:37.388Z,63.54
2018-06-18T09:43:37.377Z,65.01
2018-06-18T09:44:37.316Z,65.86
2018-06-18T09:45:37.377Z,64.85
2018-06-18T09:46:37.453Z,65.42
2018-06-18T09:47:37.436Z,65.62
2018-06-18T09:48:37.451Z,65.18
2018-06-18T09:49:37.381Z,64.93
2018-06-18T09:50:37.443Z,64.46
2018-06-18T09:51:37.322Z,64.44
2018-06-18T09:52:37.395Z,65.24
2018-06-18T09:53:37.441Z,64.65
2018-06-18T09:54:37.374Z,64.57
2018-06-18T09:55:37.445Z,62.69
2018-06-18T09:56:37.450Z,63.69
2018-06-18T09:57:37.356Z,63.38
2018-06-18T09:58:37.445Z,62.97
2018-06-18T09:59:37.385Z,63.13
2018-06-18T10:00:37.361Z,62.94
2018-06-18T10:01:37.402Z,62.46
2018-06-18T10:02:37.453Z,63.28
2018-06-18T10:03:37.390Z,63.64
2018-06-18T10:04:37.424Z,63.54
2018-06-18T10:05:37.365Z,64.80
2018-06-18T10:06:37.426Z,63.62
2018-06-18T10:07:37.434Z,62.58
2018-06-18T10:08:37.505Z,62.56
2018-06-18T10:09:37.428Z,61.91
2018-06-18T10:10:37.487Z,62.46
2018-06-18T10:11:37.431Z,64.67
2018-06-18T10:12:37.368Z,62.43
2018-06-18T10:13:37.324Z,62.61
2018-06-18T10:14:37.333Z,61.99
2018-06-18T10:15:37.453Z,61.78
2018-06-18T10:16:37.335Z,62.71
2018-06-18T10:17:37.459Z,63.05
2018-06-18T10:18:37.413Z,64.44
2018-06-18T10:19:37.467Z,63.98
2018-06-18T10:20:37.401Z,63.30
2018-06-18T10:21:37.434Z,62.92
2018-06-18T10:22:37.410Z,63.66
2018-06-18T10:23:37.415Z,63.28
2018-06-18T10:24:37.461Z,64.13
2018-06-18T10:25:37.377Z,64.38
2018-06-18T10:26:37.407Z,63.35
2018-06-18T10:27:37.443Z,64.36
2018-06-18T10:28:37.500Z,64.49
2018-06-18T10:29:37.479Z,64.67
2018-06-18T10:30:37.383Z,64.00
2018-06-18T10:31:37.420Z,64.00
2018-06-18T10:32:37.446Z,63.74
2018-06-18T10:33:37.488Z,64.00
2018-06-18T10:34:37.447Z,63.87
2018-06-18T10:35:37.472Z,63.30
2018-06-18T10:36:37.424Z,63.02
2018-06-18T10:37:37.452Z,63.18
2018-06-18T10:38:37.417Z,63.98
2018-06-18T10:39:37.471Z,63.46
2018-06-18T10:40:37.472Z,62.92
2018-06-18T10:41:37.491Z,61.99
2018-06-18T10:42:37.390Z,62.30
2018-06-18T10:43:37.411Z,61.91
2018-06-18T10:44:37.386Z,61.78
2018-06-18T10:45:37.363Z,63.18
2018-06-18T10:46:37.393Z,61.22
2018-06-18T10:47:37.407Z,60.76
2018-06-18T10:48:37.362Z,62.07
2018-06-18T10:49:37.446Z,63.33
2018-06-18T10:50:37.341Z,62.07
2018-06-18T10:51:37.454Z,61.14
2018-06-18T10:52:37.366Z,61.40
2018-06-18T10:53:37.456Z,62.12
2018-06-18T10:54:37.497Z,61.99
2018-06-18T10:55:37.498Z,61.63
2018-06-18T10:56:37.363Z,60.17
2018-06-18T10:57:37.416Z,62.02
2018-06-18T10:58:37.435Z,60.22
2018-06-18T10:59:37.465Z,61.14
2018-06-18T11:00:37.458Z,59.00
2018-06-18T11:01:37.382Z,59.40
2018-06-18T11:02:37.528Z,59.48
2018-06-18T11:03:37.446Z,60.63
2018-06-18T11:04:37.426Z,60.30
2018-06-18T11:05:37.401Z,61.46
2018-06-18T11:06:37.468Z,61.17
2018-06-18T11:07:37.401Z,60.45
2018-06-18T11:08:37.471Z,60.45
2018-06-18T11:09:37.400Z,59.81
2018-06-18T11:10:37.469Z,61.04
2018-06-18T11:11:37.405Z,59.53
2018-06-18T11:12:37.444Z,59.25
2018-06-18T11:13:37.406Z,60.43
2018-06-18T11:14:37.480Z,59.97
2018-06-18T11:15:37.473Z,60.22
2018-06-18T11:16:37.673Z,61.38
2018-06-18T11:17:37.406Z,62.33
2018-06-18T11:18:37.478Z,61.04
2018-06-18T11:19:37.412Z,61.14
2018-06-18T11:20:37.473Z,62.66
2018-06-18T11:21:37.415Z,61.56
2018-06-18T11:22:37.411Z,61.69
2018-06-18T11:23:37.479Z,61.04
2018-06-18T11:24:37.495Z,61.25
2018-06-18T11:25:37.495Z,61.84
2018-06-18T11:26:37.549Z,62.33
2018-06-18T11:27:37.457Z,63.18
2018-06-18T11:28:37.395Z,62.74
2018-06-18T11:29:37.484Z,63.18
2018-06-18T11:30:37.383Z,62.99
2018-06-18T11:31:37.507Z,63.69
2018-06-18T11:32:37.553Z,63.02
2018-06-18T11:33:37.388Z,63.66
2018-06-18T11:34:37.422Z,61.38
2018-06-18T11:35:37.488Z,62.56
2018-06-18T11:36:37.426Z,61.99
2018-06-18T11:37:37.489Z,61.99
2018-06-18T11:38:37.423Z,61.35
2018-06-18T11:39:37.541Z,61.71
2018-06-18T11:40:37.464Z,61.43
2018-06-18T11:41:37.515Z,60.22
2018-06-18T11:42:37.426Z,59.84
2018-06-18T11:43:37.536Z,59.65
2018-06-18T11:44:37.495Z,62.14
2018-06-18T11:45:37.497Z,58.74
2018-06-18T11:46:37.494Z,57.89
2018-06-18T11:47:37.505Z,59.25
2018-06-18T11:48:37.494Z,57.26
2018-06-18T11:49:37.445Z,55.85
2018-06-18T11:50:37.496Z,55.96
2018-06-18T11:51:37.430Z,55.65
2018-06-18T11:52:37.537Z,55.02
2018-06-18T11:53:37.495Z,55.55
2018-06-18T11:54:37.432Z,56.31
2018-06-18T11:55:37.537Z,54.10
2018-06-18T11:56:37.477Z,56.16
2018-06-18T11:57:37.516Z,55.75
2018-06-18T11:58:37.458Z,55.39
2018-06-18T11:59:37.412Z,55.22
2018-06-18T12:00:37.466Z,56.08
2018-06-18T12:01:37.479Z,56.61
2018-06-18T12:02:37.468Z,56.29
2018-06-18T12:03:37.489Z,58.38
2018-06-18T12:04:37.525Z,57.87
2018-06-18T12:05:37.480Z,56.57
2018-06-18T12:06:37.420Z,55.85
2018-06-18T12:07:37.451Z,57.05
2018-06-18T12:08:37.547Z,57.71
2018-06-18T12:09:37.574Z,57.56
2018-06-18T12:10:37.528Z,57.38
2018-06-18T12:11:37.529Z,57.23
2018-06-18T12:12:37.449Z,57.95
2018-06-18T12:13:37.417Z,58.74
2018-06-18T12:14:37.496Z,58.10
2018-06-18T12:15:37.642Z,59.50
2018-06-18T12:16:37.473Z,59.56
2018-06-18T12:17:37.536Z,59.43
2018-06-18T12:18:37.498Z,58.59
2018-06-18T12:19:37.484Z,58.87
2018-06-18T12:20:37.435Z,59.04
2018-06-18T12:21:37.491Z,60.30
2018-06-18T12:22:37.490Z,59.71
2018-06-18T12:23:37.640Z,60.22
2018-06-18T12:24:37.520Z,59.48
2018-06-18T12:25:37.499Z,59.61
2018-06-18T12:26:37.479Z,60.55
2018-06-18T12:27:37.595Z,59.71
2018-06-18T12:28:37.480Z,59.71
2018-06-18T12:29:37.450Z,58.61
2018-06-18T12:30:37.549Z,59.76
2018-06-18T12:31:37.562Z,59.53
2018-06-18T12:32:37.544Z,58.48
2018-06-18T12:33:37.484Z,57.99
2018-06-18T12:34:37.550Z,58.46
2018-06-18T12:35:37.510Z,57.02
2018-06-18T12:36:37.559Z,58.12
2018-06-18T12:37:37.527Z,57.48
2018-06-18T12:38:37.487Z,57.33
2018-06-18T12:39:37.499Z,57.64
2018-06-18T12:40:37.532Z,57.08
2018-06-18T12:41:37.569Z,57.15
2018-06-18T12:42:37.535Z,58.59
2018-06-18T12:43:37.510Z,57.08
2018-06-18T12:44:37.509Z,57.26
2018-06-18T12:45:37.500Z,57.21
2018-06-18T12:46:37.515Z,56.08
2018-06-18T12:47:37.509Z,57.13
2018-06-18T12:48:37.496Z,56.69
2018-06-18T12:49:37.516Z,58.61
2018-06-18T12:50:37.447Z,57.51
2018-06-18T12:51:37.515Z,55.80
2018-06-18T12:52:37.574Z,57.13
2018-06-18T12:53:37.572Z,57.26